createdAt,value
2019-05-18T00:01:39.662Z,11.26
2019-05-18T00:04:11.691Z,11.27
2019-05-18T00:06:43.883Z,11.18
2019-05-18T00:09:15.936Z,11.21
2019-05-18T00:11:50.063Z,11.25
2019-05-18T00:14:22.134Z,11.15
2019-05-18T00:16:54.163Z,10.98
2019-05-18T00:19:26.638Z,10.99
2019-05-18T00:21:58.687Z,11.00
2019-05-18T00:24:32.866Z,11.04
2019-05-18T00:27:04.971Z,10.98
2019-05-18T00:29:39.841Z,10.95
2019-05-18T00:32:12.018Z,11.00
2019-05-18T00:34:44.103Z,10.97
2019-05-18T00:37:17.841Z,10.96
2019-05-18T00:39:50.429Z,10.96
2019-05-18T00:42:22.551Z,10.94
2019-05-18T00:44:54.632Z,10.92
2019-05-18T00:47:40.364Z,10.98
2019-05-18T00:50:01.360Z,11.03
2019-05-18T00:52:35.338Z,11.03
2019-05-18T00:55:07.809Z,11.03
2019-05-18T00:57:39.851Z,11.11
2019-05-18T01:00:12.794Z,11.17
2019-05-18T01:02:44.800Z,11.19
2019-05-18T01:05:16.947Z,11.20
2019-05-18T01:07:48.955Z,11.22
2019-05-18T01:10:21.331Z,11.18
2019-05-18T01:12:53.508Z,11.10
2019-05-18T01:15:25.781Z,10.97
2019-05-18T01:18:02.304Z,10.91
2019-05-18T01:20:34.059Z,10.83
2019-05-18T01:23:06.210Z,10.74
2019-05-18T01:25:38.240Z,10.70
2019-05-18T01:28:12.161Z,10.71
2019-05-18T01:30:46.319Z,10.73
2019-05-18T01:33:18.384Z,10.75
2019-05-18T01:35:50.450Z,10.84
2019-05-18T01:38:23.700Z,10.93
2019-05-18T01:40:55.681Z,11.03
2019-05-18T01:43:27.650Z,11.01
2019-05-18T01:45:59.654Z,11.14
2019-05-18T01:48:31.641Z,11.15
2019-05-18T01:51:04.010Z,11.20
2019-05-18T01:53:36.048Z,11.27
2019-05-18T01:56:09.815Z,11.27
2019-05-18T01:58:41.960Z,11.30
2019-05-18T02:01:14.081Z,11.42
2019-05-18T02:03:46.144Z,11.52
2019-05-18T02:06:18.243Z,11.47
2019-05-18T02:08:50.271Z,11.38
2019-05-18T02:11:22.380Z,11.30
2019-05-18T02:13:54.404Z,11.34
2019-05-18T02:16:26.484Z,11.38
2019-05-18T02:19:00.106Z,11.41
2019-05-18T02:21:32.126Z,11.42
2019-05-18T02:24:04.450Z,11.42
2019-05-18T02:26:36.627Z,11.43
2019-05-18T02:29:08.742Z,11.46
2019-05-18T02:31:42.521Z,11.40
2019-05-18T02:34:15.766Z,11.45
2019-05-18T02:36:47.942Z,11.42
2019-05-18T02:39:19.941Z,11.37
2019-05-18T02:41:53.640Z,11.28
2019-05-18T02:44:25.712Z,11.16
2019-05-18T02:46:59.418Z,11.01
2019-05-18T02:49:31.372Z,10.98
2019-05-18T02:52:03.455Z,10.94
2019-05-18T02:54:35.473Z,10.95
2019-05-18T02:57:10.039Z,10.80
2019-05-18T02:59:42.110Z,10.85
2019-05-18T03:02:14.525Z,10.87
2019-05-18T03:04:46.638Z,10.87
2019-05-18T03:07:18.760Z,10.83
2019-05-18T03:09:51.008Z,10.84
2019-05-18T03:12:25.824Z,10.93
2019-05-18T03:14:58.272Z,10.95
2019-05-18T03:17:30.432Z,10.97
2019-05-18T03:20:02.437Z,11.02
2019-05-18T03:22:34.379Z,11.15
2019-05-18T03:25:08.758Z,11.19
2019-05-18T03:27:40.850Z,11.22
2019-05-18T03:30:13.361Z,11.21
2019-05-18T03:32:47.113Z,11.22
2019-05-18T03:35:21.570Z,11.21
2019-05-18T03:37:56.176Z,11.23
2019-05-18T03:40:31.531Z,11.24
2019-05-18T03:43:08.866Z,11.27
2019-05-18T03:45:42.664Z,11.24
2019-05-18T03:48:14.635Z,11.20
2019-05-18T03:50:46.698Z,11.19
2019-05-18T03:53:20.963Z,11.18
2019-05-18T03:55:52.902Z,11.13
2019-05-18T03:58:24.994Z,11.00
2019-05-18T04:00:57.483Z,10.89
2019-05-18T04:03:32.606Z,10.76
2019-05-18T04:06:04.712Z,10.57
2019-05-18T04:08:38.610Z,10.37
2019-05-18T04:11:10.641Z,10.40
2019-05-18T04:13:42.961Z,10.28
2019-05-18T04:16:15.009Z,10.25
2019-05-18T04:18:47.105Z,10.23
2019-05-18T04:21:20.808Z,10.17
2019-05-18T04:23:52.811Z,10.15
2019-05-18T04:26:25.244Z,10.26
2019-05-18T04:28:57.263Z,10.33
2019-05-18T04:31:32.120Z,10.47
2019-05-18T04:34:03.080Z,10.55
2019-05-18T04:36:36.755Z,10.66
2019-05-18T04:39:08.782Z,10.82
2019-05-18T04:41:40.766Z,10.92
2019-05-18T04:44:12.742Z,10.97
2019-05-18T04:46:44.834Z,10.99
2019-05-18T04:49:16.855Z,11.10
2019-05-18T04:51:49.032Z,11.14
2019-05-18T04:54:21.137Z,11.17
2019-05-18T04:56:54.999Z,11.01
2019-05-18T04:59:27.423Z,11.11
2019-05-18T05:01:59.442Z,11.05
2019-05-18T05:04:31.445Z,11.14
2019-05-18T05:07:03.409Z,11.14
2019-05-18T05:09:36.861Z,11.24
2019-05-18T05:12:10.804Z,11.29
2019-05-18T05:14:43.699Z,11.35
2019-05-18T05:17:15.726Z,11.37
2019-05-18T05:19:47.719Z,11.34
2019-05-18T05:22:19.770Z,11.41
2019-05-18T05:24:51.724Z,11.47
2019-05-18T05:27:25.150Z,11.46
2019-05-18T05:29:57.176Z,11.55
2019-05-18T05:32:30.450Z,11.58
2019-05-18T05:35:02.698Z,11.39
2019-05-18T05:37:34.705Z,11.31
2019-05-18T05:40:07.366Z,11.30
2019-05-18T05:42:40.944Z,11.29
2019-05-18T05:45:13.294Z,11.46
2019-05-18T05:47:45.235Z,11.56
2019-05-18T05:50:17.792Z,11.71
2019-05-18T05:52:49.765Z,11.89
2019-05-18T05:55:21.904Z,11.95
2019-05-18T05:57:55.839Z,12.01
2019-05-18T06:00:28.237Z,12.07
2019-05-18T06:03:00.237Z,12.28
2019-05-18T06:05:32.263Z,12.38
2019-05-18T06:08:05.336Z,13.04
2019-05-18T06:10:37.432Z,14.81
2019-05-18T06:13:09.431Z,16.78
2019-05-18T06:15:41.365Z,18.71
2019-05-18T06:18:13.301Z,20.10
2019-05-18T06:20:51.476Z,21.53
2019-05-18T06:23:19.146Z,22.68
2019-05-18T06:25:53.389Z,23.61
2019-05-18T06:28:26.329Z,24.24
2019-05-18T06:30:58.347Z,25.41
2019-05-18T06:33:30.333Z,25.99
2019-05-18T06:36:03.625Z,26.31
2019-05-18T06:38:35.650Z,27.42
2019-05-18T06:41:07.634Z,28.12
2019-05-18T06:43:39.674Z,28.77
2019-05-18T06:46:12.953Z,29.73
2019-05-18T06:48:44.957Z,30.32
2019-05-18T06:51:16.968Z,30.95
2019-05-18T06:53:51.429Z,31.21
2019-05-18T06:56:23.820Z,31.64
2019-05-18T06:58:57.405Z,32.19
2019-05-18T07:01:29.448Z,32.16
2019-05-18T07:04:06.246Z,32.47
2019-05-18T07:06:38.247Z,32.78
2019-05-18T07:09:14.139Z,33.39
2019-05-18T07:11:45.363Z,33.78
2019-05-18T07:14:25.624Z,34.11
2019-05-18T07:16:52.877Z,34.11
2019-05-18T07:19:24.937Z,34.70
2019-05-18T07:21:56.931Z,34.70
2019-05-18T07:24:30.016Z,35.20
2019-05-18T07:27:02.153Z,35.30
2019-05-18T07:29:34.289Z,34.58
2019-05-18T07:32:08.299Z,34.91
2019-05-18T07:34:40.337Z,36.61
2019-05-18T07:37:12.438Z,35.89
2019-05-18T07:39:44.403Z,34.91
2019-05-18T07:42:16.389Z,34.11
2019-05-18T07:44:48.388Z,31.29
2019-05-18T07:47:20.418Z,28.83
2019-05-18T07:49:52.440Z,26.31
2019-05-18T07:52:24.422Z,25.17
2019-05-18T07:54:58.057Z,23.28
2019-05-18T07:57:31.727Z,21.11
2019-05-18T08:00:05.935Z,20.96
2019-05-18T08:02:38.003Z,20.77
2019-05-18T08:05:12.405Z,20.54
2019-05-18T08:07:44.504Z,19.73
2019-05-18T08:10:21.423Z,20.54
2019-05-18T08:12:55.110Z,21.05
2019-05-18T08:15:27.168Z,21.55
2019-05-18T08:17:59.844Z,21.61
2019-05-18T08:20:35.190Z,21.57
2019-05-18T08:23:06.959Z,21.04
2019-05-18T08:25:38.997Z,21.59
2019-05-18T08:28:11.542Z,22.24
2019-05-18T08:30:45.114Z,21.10
2019-05-18T08:33:17.219Z,22.19
2019-05-18T08:35:49.586Z,22.61
2019-05-18T08:38:21.616Z,24.86
2019-05-18T08:40:53.763Z,28.07
2019-05-18T08:43:25.864Z,31.21
2019-05-18T08:45:57.995Z,33.92
2019-05-18T08:48:30.244Z,34.47
2019-05-18T08:51:02.407Z,32.38
2019-05-18T08:53:45.739Z,30.73
2019-05-18T08:56:41.766Z,30.73
2019-05-18T08:59:13.850Z,34.07
2019-05-18T09:01:49.121Z,34.26
2019-05-18T09:04:30.696Z,32.74
2019-05-18T09:07:02.739Z,29.16
2019-05-18T09:09:34.911Z,26.79
2019-05-18T09:12:06.545Z,24.47
2019-05-18T09:14:38.394Z,22.76
2019-05-18T09:17:09.821Z,20.97
2019-05-18T09:19:42.452Z,20.64
2019-05-18T09:22:25.861Z,20.65
2019-05-18T09:24:59.555Z,19.79
2019-05-18T09:27:33.085Z,19.83
2019-05-18T09:30:07.555Z,19.37
2019-05-18T09:32:39.896Z,22.06
2019-05-18T09:40:40.525Z,21.67
2019-05-18T09:43:14.203Z,21.19
2019-05-18T09:45:47.971Z,25.42
2019-05-18T09:48:23.844Z,27.03
2019-05-18T09:50:56.475Z,25.45
2019-05-18T09:53:30.176Z,27.73
2019-05-18T09:56:03.603Z,28.90
2019-05-18T09:58:35.640Z,28.77
2019-05-18T10:01:07.880Z,29.42
2019-05-18T10:03:39.927Z,30.11
2019-05-18T10:06:13.027Z,29.19
2019-05-18T10:08:45.191Z,29.06
2019-05-18T10:11:17.728Z,29.28
2019-05-18T10:13:49.857Z,29.52
2019-05-18T10:16:21.955Z,27.29
2019-05-18T10:18:54.092Z,25.39
2019-05-18T10:21:26.242Z,23.59
2019-05-18T10:23:58.320Z,22.78
2019-05-18T10:26:33.461Z,21.13
2019-05-18T10:29:05.868Z,20.88
2019-05-18T10:31:38.605Z,21.45
2019-05-18T10:34:10.854Z,22.35
2019-05-18T10:36:42.911Z,24.56
2019-05-18T10:39:15.358Z,25.57
2019-05-18T10:41:52.038Z,25.27
2019-05-18T10:44:24.178Z,25.77
2019-05-18T10:46:56.178Z,26.67
2019-05-18T10:49:28.294Z,26.75
2019-05-18T10:52:01.861Z,26.28
2019-05-18T10:54:33.837Z,25.29
2019-05-18T10:57:06.096Z,24.57
2019-05-18T10:59:38.179Z,24.36
2019-05-18T11:02:11.048Z,26.22
2019-05-18T11:04:43.326Z,28.27
2019-05-18T11:07:15.421Z,29.09
2019-05-18T11:09:47.725Z,29.70
2019-05-18T11:12:19.733Z,28.24
2019-05-18T11:14:51.823Z,25.81
2019-05-18T11:17:25.769Z,24.92
2019-05-18T11:19:57.791Z,25.44
2019-05-18T11:22:29.849Z,27.31
2019-05-18T11:25:01.818Z,25.79
2019-05-18T11:27:34.201Z,24.98
2019-05-18T11:30:07.302Z,24.59
2019-05-18T11:32:39.562Z,25.45
2019-05-18T11:35:12.383Z,26.25
2019-05-18T11:37:44.489Z,26.11
2019-05-18T11:40:17.251Z,27.05
2019-05-18T11:42:50.621Z,26.81
2019-05-18T11:45:24.833Z,26.65
2019-05-18T11:47:57.107Z,25.31
2019-05-18T11:50:29.520Z,24.93
2019-05-18T11:53:03.456Z,24.70
2019-05-18T11:55:38.585Z,23.65
2019-05-18T11:58:13.822Z,22.07
2019-05-18T12:00:47.542Z,21.71
2019-05-18T12:03:19.561Z,21.24
2019-05-18T12:05:59.206Z,21.53
2019-05-18T12:11:05.527Z,21.48
2019-05-18T12:13:39.391Z,21.79
2019-05-18T12:16:12.902Z,21.64
2019-05-18T12:18:47.559Z,22.63
2019-05-18T12:21:22.658Z,23.42
2019-05-18T12:23:54.785Z,24.23
2019-05-18T12:26:26.863Z,23.81
2019-05-18T12:29:00.834Z,23.82
2019-05-18T12:31:34.731Z,22.67
2019-05-18T12:34:06.753Z,22.00
2019-05-18T12:36:38.861Z,21.11
2019-05-18T12:39:16.932Z,21.32
2019-05-18T12:41:48.971Z,20.74
2019-05-18T12:44:21.437Z,21.01
2019-05-18T12:46:53.421Z,21.24
2019-05-18T12:49:25.539Z,21.46
2019-05-18T12:51:58.117Z,20.65
2019-05-18T12:54:45.600Z,19.89
2019-05-18T12:57:05.877Z,19.44
2019-05-18T12:59:41.966Z,19.29
2019-05-18T13:02:15.559Z,19.30
2019-05-18T13:04:47.524Z,19.36
2019-05-18T13:07:19.694Z,19.67
2019-05-18T13:09:51.760Z,19.54
2019-05-18T13:12:23.971Z,20.18
2019-05-18T13:14:55.984Z,20.08
2019-05-18T13:17:31.150Z,20.70
2019-05-18T13:20:03.298Z,21.05
2019-05-18T13:22:35.388Z,21.22
2019-05-18T13:25:12.429Z,21.59
2019-05-18T13:27:44.509Z,21.83
2019-05-18T13:30:19.887Z,21.85
2019-05-18T13:32:50.753Z,22.25
2019-05-18T13:35:24.653Z,22.68
2019-05-18T13:37:57.301Z,22.71
2019-05-18T13:40:29.216Z,22.11
2019-05-18T13:43:08.463Z,22.40
2019-05-18T13:45:41.065Z,21.72
2019-05-18T13:48:15.279Z,21.64
2019-05-18T13:50:48.229Z,21.82
2019-05-18T13:53:20.160Z,22.09
2019-05-18T13:55:52.615Z,21.56
2019-05-18T13:58:24.851Z,20.95
2019-05-18T14:00:56.912Z,20.81
2019-05-18T14:03:28.847Z,20.55
2019-05-18T14:06:00.829Z,20.60
2019-05-18T14:08:33.036Z,20.50
2019-05-18T14:11:06.497Z,20.39
2019-05-18T14:13:40.244Z,20.52
2019-05-18T14:16:14.430Z,21.15
2019-05-18T14:18:46.516Z,21.34
2019-05-18T14:21:20.272Z,21.64
2019-05-18T14:23:52.358Z,21.96
2019-05-18T14:26:24.324Z,21.44
2019-05-18T14:28:56.339Z,21.60
2019-05-18T14:31:28.327Z,21.75
2019-05-18T14:34:00.767Z,21.57
2019-05-18T14:36:34.679Z,21.36
2019-05-18T14:39:11.992Z,21.05
2019-05-18T14:41:44.414Z,21.32
2019-05-18T14:44:16.559Z,20.98
2019-05-18T14:47:06.348Z,20.65
2019-05-18T14:49:38.398Z,20.81
2019-05-18T14:52:12.160Z,21.08
2019-05-18T14:54:45.400Z,20.73
2019-05-18T14:57:17.439Z,20.82
2019-05-18T14:59:49.448Z,20.82
2019-05-18T15:02:21.786Z,20.45
2019-05-18T15:04:57.119Z,20.39
2019-05-18T15:07:29.242Z,20.27
2019-05-18T15:10:03.399Z,20.24
2019-05-18T15:12:35.576Z,20.24
2019-05-18T15:15:09.356Z,20.23
2019-05-18T15:17:41.435Z,20.47
2019-05-18T15:20:14.341Z,20.12
2019-05-18T15:22:46.439Z,20.29
2019-05-18T15:25:20.523Z,19.99
2019-05-18T15:27:52.456Z,20.18
2019-05-18T15:30:40.127Z,20.19
2019-05-18T15:33:12.452Z,20.24
2019-05-18T15:35:44.526Z,20.37
2019-05-18T15:38:16.604Z,20.01
2019-05-18T15:40:48.632Z,19.76
2019-05-18T15:43:24.787Z,19.87
2019-05-18T15:45:58.018Z,20.18
2019-05-18T15:48:30.113Z,19.89
2019-05-18T15:51:03.328Z,20.14
2019-05-18T15:53:35.380Z,19.85
2019-05-18T15:56:07.341Z,20.29
2019-05-18T15:58:39.364Z,20.17
2019-05-18T16:01:11.978Z,20.07
2019-05-18T16:03:44.315Z,19.98
2019-05-18T16:06:16.342Z,19.84
2019-05-18T16:08:51.119Z,19.59
2019-05-18T16:11:23.222Z,19.63
2019-05-18T16:13:55.397Z,19.61
2019-05-18T16:16:27.433Z,19.60
2019-05-18T16:18:59.600Z,19.65
2019-05-18T16:21:31.658Z,19.44
2019-05-18T16:24:03.989Z,19.56
2019-05-18T16:26:36.004Z,19.53
2019-05-18T16:29:08.022Z,19.41
2019-05-18T16:31:42.324Z,19.35
2019-05-18T16:34:14.446Z,19.28
2019-05-18T16:36:46.557Z,19.42
2019-05-18T16:39:18.570Z,19.44
2019-05-18T16:41:50.636Z,19.46
2019-05-18T16:44:24.545Z,18.96
2019-05-18T16:46:56.539Z,19.22
2019-05-18T16:49:29.189Z,19.36
2019-05-18T16:52:03.509Z,19.24
2019-05-18T16:54:35.552Z,18.99
2019-05-18T16:57:07.722Z,19.20
2019-05-18T16:59:39.818Z,19.17
2019-05-18T17:02:12.524Z,19.15
2019-05-18T17:04:44.999Z,18.97
2019-05-18T17:07:17.281Z,19.23
2019-05-18T17:09:49.495Z,19.42
2019-05-18T17:12:21.598Z,19.39
2019-05-18T17:14:54.629Z,18.83
2019-05-18T17:17:28.009Z,18.78
2019-05-18T17:20:00.717Z,18.69
2019-05-18T17:22:41.039Z,18.40
2019-05-18T17:25:13.961Z,18.24
2019-05-18T17:27:46.238Z,18.21
2019-05-18T17:30:18.667Z,18.12
2019-05-18T17:32:50.948Z,18.14
2019-05-18T17:35:23.034Z,18.29
2019-05-18T17:37:55.211Z,18.08
2019-05-18T17:40:27.697Z,17.87
2019-05-18T17:42:59.960Z,18.06
2019-05-18T17:45:32.352Z,17.85
2019-05-18T17:48:06.139Z,17.84
2019-05-18T17:50:38.470Z,17.74
2019-05-18T17:53:13.355Z,17.89
2019-05-18T17:55:46.483Z,17.69
2019-05-18T17:58:19.235Z,17.42
2019-05-18T18:00:51.939Z,17.36
2019-05-18T18:03:23.940Z,17.18
2019-05-18T18:05:56.588Z,17.01
2019-05-18T18:08:28.893Z,16.74
2019-05-18T18:11:04.434Z,16.74
2019-05-18T18:13:36.491Z,16.65
2019-05-18T18:16:10.229Z,16.81
2019-05-18T18:18:44.537Z,16.68
2019-05-18T18:21:16.673Z,16.66
2019-05-18T18:23:54.785Z,16.67
2019-05-18T18:26:24.692Z,16.61
2019-05-18T18:28:56.859Z,16.72
2019-05-18T18:31:28.983Z,16.65
2019-05-18T18:34:02.019Z,16.49
2019-05-18T18:36:34.362Z,16.47
2019-05-18T18:39:08.570Z,16.45
2019-05-18T18:41:43.022Z,16.48
2019-05-18T18:44:17.381Z,16.19
2019-05-18T18:46:50.001Z,16.19
2019-05-18T18:49:24.655Z,16.18
2019-05-18T18:52:01.533Z,15.98
2019-05-18T18:58:25.111Z,15.66
2019-05-18T19:00:59.065Z,15.49
2019-05-18T19:03:31.495Z,15.17
2019-05-18T19:06:04.012Z,15.08
2019-05-18T19:08:36.311Z,15.00
2019-05-18T19:11:08.652Z,14.94
2019-05-18T19:13:41.100Z,14.85
2019-05-18T19:16:13.702Z,14.89
2019-05-18T19:18:46.042Z,14.81
2019-05-18T19:21:18.665Z,14.80
2019-05-18T19:23:50.797Z,14.77
2019-05-18T19:26:22.979Z,14.77
2019-05-18T19:28:55.178Z,14.68
2019-05-18T19:31:28.859Z,14.59
2019-05-18T19:34:06.656Z,14.51
2019-05-18T19:36:38.796Z,14.48
2019-05-18T19:39:11.339Z,14.42
2019-05-18T19:41:47.757Z,14.39
2019-05-18T19:44:23.920Z,14.29
2019-05-18T19:46:55.633Z,14.18
2019-05-18T19:49:27.669Z,14.09
2019-05-18T19:51:59.961Z,14.02
2019-05-18T19:54:32.938Z,13.94
2019-05-18T19:57:08.183Z,13.89
2019-05-18T19:59:44.849Z,13.85
2019-05-18T20:02:18.438Z,13.79
2019-05-18T20:05:06.474Z,13.75
2019-05-18T20:07:50.100Z,13.68
2019-05-18T20:10:57.847Z,13.60
2019-05-18T20:13:29.377Z,13.57
2019-05-18T20:16:02.774Z,13.54
2019-05-18T20:18:34.799Z,13.47
2019-05-18T20:21:06.863Z,13.50
2019-05-18T20:23:40.291Z,13.45
2019-05-18T20:26:14.824Z,13.38
2019-05-18T20:28:46.820Z,13.37
2019-05-18T20:31:26.797Z,13.38
2019-05-18T20:36:07.514Z,13.29
2019-05-18T20:37:23.666Z,13.37
2019-05-18T20:43:46.663Z,13.32
2019-05-18T20:47:17.231Z,13.18
2019-05-18T20:49:52.904Z,13.14
2019-05-18T20:52:48.704Z,13.12
2019-05-18T20:55:23.955Z,13.14
2019-05-18T20:57:56.065Z,13.11
2019-05-18T21:00:28.314Z,12.97
2019-05-18T21:03:02.363Z,12.91
2019-05-18T21:05:38.328Z,12.79
2019-05-18T21:08:10.497Z,12.80
2019-05-18T21:10:45.326Z,12.73
2019-05-18T21:13:17.473Z,12.68
2019-05-18T21:15:52.822Z,12.80
2019-05-18T21:18:24.913Z,12.73
2019-05-18T21:20:59.501Z,12.68
2019-05-18T21:23:31.587Z,12.67
2019-05-18T21:26:04.431Z,12.57
2019-05-18T21:28:54.765Z,12.60
2019-05-18T21:31:16.563Z,12.61
2019-05-18T21:33:48.717Z,12.58
2019-05-18T21:36:20.744Z,12.70
2019-05-18T21:38:54.913Z,12.70
2019-05-18T21:41:31.663Z,12.69
2019-05-18T21:44:03.796Z,12.72
2019-05-18T21:46:38.974Z,12.69
2019-05-18T21:49:33.489Z,12.73
2019-05-18T21:52:07.604Z,12.63
2019-05-18T21:54:39.661Z,12.62
2019-05-18T21:57:11.829Z,12.63
2019-05-18T21:59:44.269Z,12.51
2019-05-18T22:02:16.457Z,12.37
2019-05-18T22:04:48.486Z,12.34
2019-05-18T22:07:20.456Z,12.41
2019-05-18T22:09:54.189Z,12.39
2019-05-18T22:12:26.218Z,12.41
2019-05-18T22:14:58.288Z,12.36
2019-05-18T22:17:30.745Z,12.38
2019-05-18T22:20:03.862Z,12.38
2019-05-18T22:22:37.518Z,12.35
2019-05-18T22:25:09.785Z,12.33
2019-05-18T22:27:44.941Z,12.31
2019-05-18T22:30:20.105Z,12.33
2019-05-18T22:32:52.957Z,12.33
2019-05-18T22:35:25.221Z,12.31
2019-05-18T22:37:57.345Z,12.30
2019-05-18T22:40:29.475Z,12.33
2019-05-18T22:43:02.255Z,12.28
2019-05-18T22:45:34.317Z,12.26
2019-05-18T22:48:06.491Z,12.19
2019-05-18T22:50:38.527Z,12.15
2019-05-18T22:53:10.598Z,12.04
2019-05-18T22:55:42.540Z,11.99
2019-05-18T22:58:14.515Z,11.93
2019-05-18T23:00:46.477Z,11.90
2019-05-18T23:03:18.633Z,11.87
2019-05-18T23:05:50.632Z,11.84
2019-05-18T23:08:22.643Z,11.78
2019-05-18T23:10:54.830Z,11.75
2019-05-18T23:13:29.885Z,11.75
2019-05-18T23:16:04.426Z,11.68
2019-05-18T23:18:39.929Z,11.63
2019-05-18T23:21:12.620Z,11.62
2019-05-18T23:23:44.627Z,11.60
2019-05-18T23:26:16.607Z,11.53
2019-05-18T23:28:48.586Z,11.51
2019-05-18T23:31:21.111Z,11.43
2019-05-18T23:33:53.231Z,11.42
2019-05-18T23:36:25.655Z,11.31
2019-05-18T23:38:57.940Z,11.33
2019-05-18T23:41:31.590Z,11.27
2019-05-18T23:44:03.619Z,11.28
2019-05-18T23:46:36.227Z,11.30
2019-05-18T23:49:10.718Z,11.20
2019-05-18T23:51:43.622Z,11.17
2019-05-18T23:54:18.843Z,11.13
2019-05-18T23:56:52.529Z,11.08
2019-05-18T23:59:26.140Z,11.02
